sensor_id;sensor_type;location;lat;lon;timestamp;P1;durP1;ratioP1;P2;durP2;ratioP2
66741;SDS011;53654;54.152;19.432;2023-02-27T00:01:44;2.50;;;1.70;;
66741;SDS011;53654;54.152;19.432;2023-02-27T00:04:13;2.20;;;1.50;;
66741;SDS011;53654;54.152;19.432;2023-02-27T00:06:41;2.10;;;1.30;;
66741;SDS011;53654;54.152;19.432;2023-02-27T00:09:09;2.30;;;1.50;;
66741;SDS011;53654;54.152;19.432;2023-02-27T00:11:37;2.20;;;1.60;;
66741;SDS011;53654;54.152;19.432;2023-02-27T00:14:05;4.80;;;1.80;;
66741;SDS011;53654;54.152;19.432;2023-02-27T00:16:33;2.20;;;1.50;;
66741;SDS011;53654;54.152;19.432;2023-02-27T00:19:02;3.20;;;2.30;;
66741;SDS011;53654;54.152;19.432;2023-02-27T00:21:31;3.80;;;1.90;;
66741;SDS011;53654;54.152;19.432;2023-02-27T00:24:03;2.50;;;1.70;;
66741;SDS011;53654;54.152;19.432;2023-02-27T00:26:32;2.50;;;1.70;;
66741;SDS011;53654;54.152;19.432;2023-02-27T00:29:00;2.70;;;1.80;;
66741;SDS011;53654;54.152;19.432;2023-02-27T00:31:28;2.20;;;1.50;;
66741;SDS011;53654;54.152;19.432;2023-02-27T00:33:57;2.60;;;1.90;;
66741;SDS011;53654;54.152;19.432;2023-02-27T00:36:25;3.50;;;1.80;;
66741;SDS011;53654;54.152;19.432;2023-02-27T00:38:53;3.50;;;1.90;;
66741;SDS011;53654;54.152;19.432;2023-02-27T00:41:21;3.30;;;2.00;;
66741;SDS011;53654;54.152;19.432;2023-02-27T00:43:51;3.40;;;2.00;;
66741;SDS011;53654;54.152;19.432;2023-02-27T00:46:19;3.40;;;2.30;;
66741;SDS011;53654;54.152;19.432;2023-02-27T00:48:47;3.70;;;2.20;;
66741;SDS011;53654;54.152;19.432;2023-02-27T00:51:15;4.30;;;2.90;;
66741;SDS011;53654;54.152;19.432;2023-02-27T00:53:46;4.70;;;3.10;;
66741;SDS011;53654;54.152;19.432;2023-02-27T00:56:14;4.70;;;3.10;;
66741;SDS011;53654;54.152;19.432;2023-02-27T00:58:42;6.00;;;4.20;;
66741;SDS011;53654;54.152;19.432;2023-02-27T01:01:10;6.10;;;4.90;;
66741;SDS011;53654;54.152;19.432;2023-02-27T01:03:39;6.30;;;4.00;;
66741;SDS011;53654;54.152;19.432;2023-02-27T01:06:07;5.10;;;3.40;;
66741;SDS011;53654;54.152;19.432;2023-02-27T01:08:35;4.80;;;3.00;;
66741;SDS011;53654;54.152;19.432;2023-02-27T01:11:04;3.90;;;2.70;;
66741;SDS011;53654;54.152;19.432;2023-02-27T01:13:32;4.00;;;2.80;;
66741;SDS011;53654;54.152;19.432;2023-02-27T01:16:01;4.10;;;2.70;;
66741;SDS011;53654;54.152;19.432;2023-02-27T01:18:29;2.80;;;2.10;;
66741;SDS011;53654;54.152;19.432;2023-02-27T01:20:57;2.40;;;1.60;;
66741;SDS011;53654;54.152;19.432;2023-02-27T01:23:25;2.30;;;1.70;;
66741;SDS011;53654;54.152;19.432;2023-02-27T01:25:53;2.70;;;1.90;;
66741;SDS011;53654;54.152;19.432;2023-02-27T01:28:21;3.20;;;1.60;;
66741;SDS011;53654;54.152;19.432;2023-02-27T01:30:49;3.60;;;1.70;;
66741;SDS011;53654;54.152;19.432;2023-02-27T01:33:18;2.90;;;1.80;;
66741;SDS011;53654;54.152;19.432;2023-02-27T01:35:46;2.90;;;1.80;;
66741;SDS011;53654;54.152;19.432;2023-02-27T01:38:14;3.50;;;1.90;;
66741;SDS011;53654;54.152;19.432;2023-02-27T01:40:42;2.00;;;1.70;;
66741;SDS011;53654;54.152;19.432;2023-02-27T01:43:15;2.80;;;2.10;;
66741;SDS011;53654;54.152;19.432;2023-02-27T01:45:46;3.30;;;2.00;;
66741;SDS011;53654;54.152;19.432;2023-02-27T01:48:20;3.90;;;2.10;;
66741;SDS011;53654;54.152;19.432;2023-02-27T01:53:34;3.80;;;2.00;;
66741;SDS011;53654;54.152;19.432;2023-02-27T01:56:07;4.00;;;2.30;;
66741;SDS011;53654;54.152;19.432;2023-02-27T01:58:46;4.00;;;2.30;;
66741;SDS011;53654;54.152;19.432;2023-02-27T02:01:16;4.10;;;2.90;;
66741;SDS011;53654;54.152;19.432;2023-02-27T02:03:52;3.70;;;3.00;;
66741;SDS011;53654;54.152;19.432;2023-02-27T02:06:31;3.50;;;2.60;;
66741;SDS011;53654;54.152;19.432;2023-02-27T02:09:05;2.90;;;2.50;;
66741;SDS011;53654;54.152;19.432;2023-02-27T02:11:35;4.40;;;2.90;;
66741;SDS011;53654;54.152;19.432;2023-02-27T02:14:04;3.30;;;2.60;;
66741;SDS011;53654;54.152;19.432;2023-02-27T02:26:56;4.70;;;2.80;;
66741;SDS011;53654;54.152;19.432;2023-02-27T02:35:35;3.90;;;2.80;;
66741;SDS011;53654;54.152;19.432;2023-02-27T02:44:06;5.30;;;3.10;;
66741;SDS011;53654;54.152;19.432;2023-02-27T02:49:52;3.80;;;3.00;;
66741;SDS011;53654;54.152;19.432;2023-02-27T02:55:11;5.30;;;4.50;;
66741;SDS011;53654;54.152;19.432;2023-02-27T02:57:47;8.90;;;7.10;;
66741;SDS011;53654;54.152;19.432;2023-02-27T03:00:26;8.80;;;7.30;;
66741;SDS011;53654;54.152;19.432;2023-02-27T03:03:15;9.60;;;7.80;;
66741;SDS011;53654;54.152;19.432;2023-02-27T03:05:52;5.90;;;5.20;;
66741;SDS011;53654;54.152;19.432;2023-02-27T03:08:28;6.00;;;5.40;;
66741;SDS011;53654;54.152;19.432;2023-02-27T03:11:01;5.90;;;4.00;;
66741;SDS011;53654;54.152;19.432;2023-02-27T03:13:33;5.70;;;5.50;;
66741;SDS011;53654;54.152;19.432;2023-02-27T03:22:01;9.60;;;6.50;;
66741;SDS011;53654;54.152;19.432;2023-02-27T03:24:37;8.80;;;6.60;;
66741;SDS011;53654;54.152;19.432;2023-02-27T03:27:08;8.00;;;6.30;;
66741;SDS011;53654;54.152;19.432;2023-02-27T03:30:02;11.30;;;8.10;;
66741;SDS011;53654;54.152;19.432;2023-02-27T03:35:21;10.40;;;8.00;;
66741;SDS011;53654;54.152;19.432;2023-02-27T03:38:00;10.20;;;8.40;;
66741;SDS011;53654;54.152;19.432;2023-02-27T03:40:37;11.40;;;8.80;;
66741;SDS011;53654;54.152;19.432;2023-02-27T03:48:17;12.20;;;9.10;;
66741;SDS011;53654;54.152;19.432;2023-02-27T03:50:45;10.80;;;8.90;;
66741;SDS011;53654;54.152;19.432;2023-02-27T03:53:20;10.80;;;8.70;;
66741;SDS011;53654;54.152;19.432;2023-02-27T03:56:11;10.10;;;7.90;;
66741;SDS011;53654;54.152;19.432;2023-02-27T03:58:43;10.60;;;8.20;;
66741;SDS011;53654;54.152;19.432;2023-02-27T04:01:11;11.00;;;8.20;;
66741;SDS011;53654;54.152;19.432;2023-02-27T04:03:45;13.80;;;11.70;;
66741;SDS011;53654;54.152;19.432;2023-02-27T04:06:31;18.40;;;15.00;;
66741;SDS011;53654;54.152;19.432;2023-02-27T04:09:24;18.50;;;14.80;;
66741;SDS011;53654;54.152;19.432;2023-02-27T04:23:56;24.70;;;19.60;;
66741;SDS011;53654;54.152;19.432;2023-02-27T04:26:34;24.80;;;19.90;;
66741;SDS011;53654;54.152;19.432;2023-02-27T04:29:29;22.60;;;19.30;;
66741;SDS011;53654;54.152;19.432;2023-02-27T04:32:21;22.90;;;18.90;;
66741;SDS011;53654;54.152;19.432;2023-02-27T04:34:59;22.50;;;18.00;;
66741;SDS011;53654;54.152;19.432;2023-02-27T04:40:28;20.50;;;16.40;;
66741;SDS011;53654;54.152;19.432;2023-02-27T04:43:04;16.80;;;14.50;;
66741;SDS011;53654;54.152;19.432;2023-02-27T04:45:36;14.70;;;13.10;;
66741;SDS011;53654;54.152;19.432;2023-02-27T04:48:18;13.00;;;10.40;;
66741;SDS011;53654;54.152;19.432;2023-02-27T04:50:53;16.20;;;12.80;;
66741;SDS011;53654;54.152;19.432;2023-02-27T04:53:32;16.50;;;12.70;;
66741;SDS011;53654;54.152;19.432;2023-02-27T04:56:07;13.20;;;11.40;;
66741;SDS011;53654;54.152;19.432;2023-02-27T04:58:47;12.20;;;10.00;;
66741;SDS011;53654;54.152;19.432;2023-02-27T05:01:23;10.80;;;9.10;;
66741;SDS011;53654;54.152;19.432;2023-02-27T05:03:57;10.60;;;9.40;;
66741;SDS011;53654;54.152;19.432;2023-02-27T05:06:28;11.00;;;9.80;;
66741;SDS011;53654;54.152;19.432;2023-02-27T05:09:17;11.20;;;9.40;;
66741;SDS011;53654;54.152;19.432;2023-02-27T05:12:02;16.00;;;13.90;;
66741;SDS011;53654;54.152;19.432;2023-02-27T05:17:50;16.10;;;13.10;;
66741;SDS011;53654;54.152;19.432;2023-02-27T05:20:03;13.80;;;12.40;;
66741;SDS011;53654;54.152;19.432;2023-02-27T05:25:18;18.00;;;16.10;;
66741;SDS011;53654;54.152;19.432;2023-02-27T05:27:58;16.30;;;14.30;;
66741;SDS011;53654;54.152;19.432;2023-02-27T05:33:16;18.80;;;15.20;;
66741;SDS011;53654;54.152;19.432;2023-02-27T05:38:46;27.20;;;18.30;;
66741;SDS011;53654;54.152;19.432;2023-02-27T05:41:19;44.50;;;27.40;;
66741;SDS011;53654;54.152;19.432;2023-02-27T05:44:00;43.50;;;26.10;;
66741;SDS011;53654;54.152;19.432;2023-02-27T05:46:36;25.90;;;16.50;;
66741;SDS011;53654;54.152;19.432;2023-02-27T05:49:22;23.00;;;14.10;;
66741;SDS011;53654;54.152;19.432;2023-02-27T05:51:54;32.40;;;20.30;;
66741;SDS011;53654;54.152;19.432;2023-02-27T05:57:10;53.00;;;36.00;;
66741;SDS011;53654;54.152;19.432;2023-02-27T05:59:48;49.40;;;34.20;;
66741;SDS011;53654;54.152;19.432;2023-02-27T06:02:38;133.30;;;79.20;;
66741;SDS011;53654;54.152;19.432;2023-02-27T06:05:08;113.20;;;68.70;;
66741;SDS011;53654;54.152;19.432;2023-02-27T06:07:36;93.60;;;58.10;;
66741;SDS011;53654;54.152;19.432;2023-02-27T06:10:05;128.60;;;79.90;;
66741;SDS011;53654;54.152;19.432;2023-02-27T06:12:33;75.70;;;47.90;;
66741;SDS011;53654;54.152;19.432;2023-02-27T06:15:01;84.80;;;54.10;;
66741;SDS011;53654;54.152;19.432;2023-02-27T06:17:30;67.40;;;43.20;;
66741;SDS011;53654;54.152;19.432;2023-02-27T06:19:58;51.30;;;33.90;;
66741;SDS011;53654;54.152;19.432;2023-02-27T06:22:26;66.10;;;45.40;;
66741;SDS011;53654;54.152;19.432;2023-02-27T06:24:54;54.10;;;37.60;;
66741;SDS011;53654;54.152;19.432;2023-02-27T06:27:22;55.70;;;36.10;;
66741;SDS011;53654;54.152;19.432;2023-02-27T06:29:50;59.80;;;37.50;;
66741;SDS011;53654;54.152;19.432;2023-02-27T06:32:20;61.60;;;38.90;;
66741;SDS011;53654;54.152;19.432;2023-02-27T06:34:51;63.60;;;37.20;;
66741;SDS011;53654;54.152;19.432;2023-02-27T06:37:20;62.80;;;36.50;;
66741;SDS011;53654;54.152;19.432;2023-02-27T06:39:48;61.40;;;37.70;;
66741;SDS011;53654;54.152;19.432;2023-02-27T06:42:16;44.80;;;29.90;;
66741;SDS011;53654;54.152;19.432;2023-02-27T06:44:44;44.80;;;27.80;;
66741;SDS011;53654;54.152;19.432;2023-02-27T06:47:13;40.40;;;28.00;;
66741;SDS011;53654;54.152;19.432;2023-02-27T06:49:41;36.80;;;27.10;;
66741;SDS011;53654;54.152;19.432;2023-02-27T06:52:09;37.90;;;25.90;;
66741;SDS011;53654;54.152;19.432;2023-02-27T06:54:37;33.90;;;22.80;;
66741;SDS011;53654;54.152;19.432;2023-02-27T06:57:05;28.30;;;20.40;;
66741;SDS011;53654;54.152;19.432;2023-02-27T06:59:33;28.90;;;19.00;;
66741;SDS011;53654;54.152;19.432;2023-02-27T07:02:01;25.30;;;18.80;;
66741;SDS011;53654;54.152;19.432;2023-02-27T07:04:30;28.10;;;19.50;;
66741;SDS011;53654;54.152;19.432;2023-02-27T07:06:58;26.00;;;19.90;;
66741;SDS011;53654;54.152;19.432;2023-02-27T07:09:46;27.00;;;20.50;;
66741;SDS011;53654;54.152;19.432;2023-02-27T07:12:15;28.40;;;21.00;;
66741;SDS011;53654;54.152;19.432;2023-02-27T07:14:43;27.80;;;21.40;;
66741;SDS011;53654;54.152;19.432;2023-02-27T07:17:11;29.30;;;21.90;;
66741;SDS011;53654;54.152;19.432;2023-02-27T07:19:39;29.00;;;22.00;;
66741;SDS011;53654;54.152;19.432;2023-02-27T07:22:07;29.70;;;22.80;;
66741;SDS011;53654;54.152;19.432;2023-02-27T07:24:38;32.80;;;25.10;;
66741;SDS011;53654;54.152;19.432;2023-02-27T07:27:06;33.00;;;25.30;;
66741;SDS011;53654;54.152;19.432;2023-02-27T07:29:34;30.40;;;22.50;;
66741;SDS011;53654;54.152;19.432;2023-02-27T07:32:02;24.60;;;20.40;;
66741;SDS011;53654;54.152;19.432;2023-02-27T07:34:31;23.50;;;18.60;;
66741;SDS011;53654;54.152;19.432;2023-02-27T07:36:59;20.70;;;16.90;;
66741;SDS011;53654;54.152;19.432;2023-02-27T07:39:27;21.70;;;16.80;;
66741;SDS011;53654;54.152;19.432;2023-02-27T07:41:55;21.00;;;16.00;;
66741;SDS011;53654;54.152;19.432;2023-02-27T07:44:23;17.00;;;12.90;;
66741;SDS011;53654;54.152;19.432;2023-02-27T07:46:51;8.90;;;6.90;;
66741;SDS011;53654;54.152;19.432;2023-02-27T07:49:19;8.30;;;6.70;;
66741;SDS011;53654;54.152;19.432;2023-02-27T07:51:48;7.80;;;7.10;;
66741;SDS011;53654;54.152;19.432;2023-02-27T07:54:16;5.60;;;5.00;;
66741;SDS011;53654;54.152;19.432;2023-02-27T07:56:44;5.80;;;4.70;;
66741;SDS011;53654;54.152;19.432;2023-02-27T07:59:12;4.90;;;3.40;;
66741;SDS011;53654;54.152;19.432;2023-02-27T08:01:40;5.90;;;4.90;;
66741;SDS011;53654;54.152;19.432;2023-02-27T08:04:09;9.10;;;7.70;;
66741;SDS011;53654;54.152;19.432;2023-02-27T08:06:37;7.30;;;6.20;;
66741;SDS011;53654;54.152;19.432;2023-02-27T08:09:05;12.20;;;10.70;;
66741;SDS011;53654;54.152;19.432;2023-02-27T08:11:33;12.80;;;11.10;;
66741;SDS011;53654;54.152;19.432;2023-02-27T08:14:01;12.00;;;9.80;;
66741;SDS011;53654;54.152;19.432;2023-02-27T08:16:30;11.00;;;8.20;;
66741;SDS011;53654;54.152;19.432;2023-02-27T08:18:59;13.20;;;8.10;;
66741;SDS011;53654;54.152;19.432;2023-02-27T08:21:28;7.90;;;5.50;;
66741;SDS011;53654;54.152;19.432;2023-02-27T08:23:57;8.90;;;5.90;;
66741;SDS011;53654;54.152;19.432;2023-02-27T08:26:25;9.70;;;6.50;;
66741;SDS011;53654;54.152;19.432;2023-02-27T08:28:54;6.50;;;5.00;;
66741;SDS011;53654;54.152;19.432;2023-02-27T08:31:22;6.40;;;5.00;;
66741;SDS011;53654;54.152;19.432;2023-02-27T08:33:51;5.80;;;4.60;;
66741;SDS011;53654;54.152;19.432;2023-02-27T08:36:34;5.60;;;4.30;;
66741;SDS011;53654;54.152;19.432;2023-02-27T08:39:03;5.00;;;4.20;;
66741;SDS011;53654;54.152;19.432;2023-02-27T08:41:32;5.60;;;4.30;;
66741;SDS011;53654;54.152;19.432;2023-02-27T08:44:00;6.60;;;4.60;;
66741;SDS011;53654;54.152;19.432;2023-02-27T08:46:29;6.30;;;4.60;;
66741;SDS011;53654;54.152;19.432;2023-02-27T08:48:57;5.00;;;4.50;;
66741;SDS011;53654;54.152;19.432;2023-02-27T08:51:25;4.40;;;3.60;;
66741;SDS011;53654;54.152;19.432;2023-02-27T08:53:54;4.40;;;3.30;;
66741;SDS011;53654;54.152;19.432;2023-02-27T08:56:26;4.60;;;3.00;;
66741;SDS011;53654;54.152;19.432;2023-02-27T08:58:55;4.50;;;3.50;;
66741;SDS011;53654;54.152;19.432;2023-02-27T09:01:23;5.30;;;3.70;;
66741;SDS011;53654;54.152;19.432;2023-02-27T09:03:55;4.50;;;3.00;;
66741;SDS011;53654;54.152;19.432;2023-02-27T09:06:24;4.70;;;3.10;;
66741;SDS011;53654;54.152;19.432;2023-02-27T09:08:53;3.90;;;3.00;;
66741;SDS011;53654;54.152;19.432;2023-02-27T09:11:22;3.90;;;3.40;;
66741;SDS011;53654;54.152;19.432;2023-02-27T09:13:51;3.90;;;2.90;;
66741;SDS011;53654;54.152;19.432;2023-02-27T09:16:20;4.50;;;3.50;;
66741;SDS011;53654;54.152;19.432;2023-02-27T09:18:49;2.60;;;2.10;;
66741;SDS011;53654;54.152;19.432;2023-02-27T09:21:17;2.20;;;1.60;;
66741;SDS011;53654;54.152;19.432;2023-02-27T09:23:45;1.90;;;1.60;;
66741;SDS011;53654;54.152;19.432;2023-02-27T09:26:13;2.00;;;1.30;;
66741;SDS011;53654;54.152;19.432;2023-02-27T09:28:43;2.00;;;1.40;;
66741;SDS011;53654;54.152;19.432;2023-02-27T09:31:11;2.00;;;1.50;;
66741;SDS011;53654;54.152;19.432;2023-02-27T09:33:40;2.40;;;1.60;;
66741;SDS011;53654;54.152;19.432;2023-02-27T09:36:08;2.00;;;1.60;;
66741;SDS011;53654;54.152;19.432;2023-02-27T09:38:37;2.50;;;1.70;;
66741;SDS011;53654;54.152;19.432;2023-02-27T09:41:19;2.50;;;1.80;;
66741;SDS011;53654;54.152;19.432;2023-02-27T09:43:51;2.50;;;1.60;;
66741;SDS011;53654;54.152;19.432;2023-02-27T09:46:20;2.10;;;1.90;;
66741;SDS011;53654;54.152;19.432;2023-02-27T09:48:54;2.70;;;2.10;;
66741;SDS011;53654;54.152;19.432;2023-02-27T09:51:27;1.90;;;1.60;;
66741;SDS011;53654;54.152;19.432;2023-02-27T09:53:57;2.00;;;1.80;;
66741;SDS011;53654;54.152;19.432;2023-02-27T09:56:28;1.70;;;1.60;;
66741;SDS011;53654;54.152;19.432;2023-02-27T09:59:24;3.30;;;1.80;;
66741;SDS011;53654;54.152;19.432;2023-02-27T10:02:23;2.70;;;1.90;;
66741;SDS011;53654;54.152;19.432;2023-02-27T10:08:01;2.00;;;1.60;;
66741;SDS011;53654;54.152;19.432;2023-02-27T10:10:42;3.20;;;1.90;;
66741;SDS011;53654;54.152;19.432;2023-02-27T10:16:12;1.50;;;1.40;;
66741;SDS011;53654;54.152;19.432;2023-02-27T10:21:20;2.70;;;1.30;;
66741;SDS011;53654;54.152;19.432;2023-02-27T10:26:40;1.60;;;1.20;;
66741;SDS011;53654;54.152;19.432;2023-02-27T10:29:15;1.90;;;1.40;;
66741;SDS011;53654;54.152;19.432;2023-02-27T10:31:47;2.30;;;1.50;;
66741;SDS011;53654;54.152;19.432;2023-02-27T10:34:24;2.00;;;1.70;;
66741;SDS011;53654;54.152;19.432;2023-02-27T10:36:55;2.70;;;1.80;;
66741;SDS011;53654;54.152;19.432;2023-02-27T10:39:27;3.20;;;2.20;;
66741;SDS011;53654;54.152;19.432;2023-02-27T10:42:00;1.90;;;1.70;;
66741;SDS011;53654;54.152;19.432;2023-02-27T10:44:33;1.90;;;1.60;;
66741;SDS011;53654;54.152;19.432;2023-02-27T10:47:01;3.70;;;2.00;;
66741;SDS011;53654;54.152;19.432;2023-02-27T10:49:30;2.60;;;2.00;;
66741;SDS011;53654;54.152;19.432;2023-02-27T10:52:04;1.80;;;1.40;;
66741;SDS011;53654;54.152;19.432;2023-02-27T10:54:33;3.30;;;1.70;;
66741;SDS011;53654;54.152;19.432;2023-02-27T10:57:01;2.00;;;1.40;;
66741;SDS011;53654;54.152;19.432;2023-02-27T10:59:55;2.20;;;1.60;;
66741;SDS011;53654;54.152;19.432;2023-02-27T11:02:28;2.20;;;1.50;;
66741;SDS011;53654;54.152;19.432;2023-02-27T11:05:04;2.60;;;1.10;;
66741;SDS011;53654;54.152;19.432;2023-02-27T11:07:37;1.70;;;1.20;;
66741;SDS011;53654;54.152;19.432;2023-02-27T11:12:37;2.60;;;1.50;;
66741;SDS011;53654;54.152;19.432;2023-02-27T11:17:43;2.40;;;1.10;;
66741;SDS011;53654;54.152;19.432;2023-02-27T11:23:12;2.90;;;1.30;;
66741;SDS011;53654;54.152;19.432;2023-02-27T11:25:43;1.50;;;1.30;;
66741;SDS011;53654;54.152;19.432;2023-02-27T11:28:33;1.30;;;0.90;;
66741;SDS011;53654;54.152;19.432;2023-02-27T11:31:06;1.30;;;1.20;;
66741;SDS011;53654;54.152;19.432;2023-02-27T11:33:51;1.50;;;1.00;;
66741;SDS011;53654;54.152;19.432;2023-02-27T11:36:21;1.80;;;1.50;;
66741;SDS011;53654;54.152;19.432;2023-02-27T11:38:51;1.60;;;1.10;;
66741;SDS011;53654;54.152;19.432;2023-02-27T11:41:33;1.80;;;1.00;;
66741;SDS011;53654;54.152;19.432;2023-02-27T11:44:02;1.80;;;1.10;;
66741;SDS011;53654;54.152;19.432;2023-02-27T11:46:32;1.90;;;0.90;;
66741;SDS011;53654;54.152;19.432;2023-02-27T11:49:34;2.20;;;0.90;;
66741;SDS011;53654;54.152;19.432;2023-02-27T11:52:22;1.60;;;1.00;;
66741;SDS011;53654;54.152;19.432;2023-02-27T11:54:59;0.80;;;0.80;;
66741;SDS011;53654;54.152;19.432;2023-02-27T11:57:32;1.50;;;1.10;;
66741;SDS011;53654;54.152;19.432;2023-02-27T12:06:02;2.20;;;1.40;;
66741;SDS011;53654;54.152;19.432;2023-02-27T12:13:52;1.80;;;1.20;;
66741;SDS011;53654;54.152;19.432;2023-02-27T12:16:33;1.40;;;1.10;;
66741;SDS011;53654;54.152;19.432;2023-02-27T12:19:11;1.20;;;1.00;;
66741;SDS011;53654;54.152;19.432;2023-02-27T12:21:49;1.50;;;1.20;;
66741;SDS011;53654;54.152;19.432;2023-02-27T12:24:50;1.80;;;1.30;;
66741;SDS011;53654;54.152;19.432;2023-02-27T12:27:23;2.00;;;1.10;;
66741;SDS011;53654;54.152;19.432;2023-02-27T12:30:01;3.10;;;1.40;;
66741;SDS011;53654;54.152;19.432;2023-02-27T12:35:25;2.00;;;1.20;;
66741;SDS011;53654;54.152;19.432;2023-02-27T12:37:57;1.90;;;1.30;;
66741;SDS011;53654;54.152;19.432;2023-02-27T12:40:28;1.90;;;1.30;;
66741;SDS011;53654;54.152;19.432;2023-02-27T12:43:11;1.30;;;1.10;;
66741;SDS011;53654;54.152;19.432;2023-02-27T12:57:05;2.00;;;1.70;;
66741;SDS011;53654;54.152;19.432;2023-02-27T13:05:16;3.60;;;1.70;;
66741;SDS011;53654;54.152;19.432;2023-02-27T13:14:07;2.80;;;1.60;;
66741;SDS011;53654;54.152;19.432;2023-02-27T13:17:08;9.00;;;6.20;;
66741;SDS011;53654;54.152;19.432;2023-02-27T13:19:47;5.30;;;3.40;;
66741;SDS011;53654;54.152;19.432;2023-02-27T13:25:01;1.90;;;1.40;;
66741;SDS011;53654;54.152;19.432;2023-02-27T13:27:41;3.30;;;2.30;;
66741;SDS011;53654;54.152;19.432;2023-02-27T13:30:15;3.70;;;2.40;;
66741;SDS011;53654;54.152;19.432;2023-02-27T13:35:27;4.60;;;2.90;;
66741;SDS011;53654;54.152;19.432;2023-02-27T13:37:57;2.70;;;2.00;;
66741;SDS011;53654;54.152;19.432;2023-02-27T13:40:36;3.70;;;2.90;;
66741;SDS011;53654;54.152;19.432;2023-02-27T13:46:20;2.20;;;2.00;;
66741;SDS011;53654;54.152;19.432;2023-02-27T13:56:46;3.60;;;2.20;;
66741;SDS011;53654;54.152;19.432;2023-02-27T13:59:33;3.00;;;2.40;;
66741;SDS011;53654;54.152;19.432;2023-02-27T14:04:46;3.40;;;2.60;;
66741;SDS011;53654;54.152;19.432;2023-02-27T14:07:20;4.80;;;3.70;;
66741;SDS011;53654;54.152;19.432;2023-02-27T14:12:39;4.70;;;4.10;;
66741;SDS011;53654;54.152;19.432;2023-02-27T14:17:44;3.60;;;3.00;;
66741;SDS011;53654;54.152;19.432;2023-02-27T14:25:46;3.50;;;2.70;;
66741;SDS011;53654;54.152;19.432;2023-02-27T14:31:20;2.60;;;1.90;;
66741;SDS011;53654;54.152;19.432;2023-02-27T14:33:55;3.00;;;2.00;;
66741;SDS011;53654;54.152;19.432;2023-02-27T14:36:28;5.60;;;3.40;;
66741;SDS011;53654;54.152;19.432;2023-02-27T14:39:00;6.30;;;4.00;;
66741;SDS011;53654;54.152;19.432;2023-02-27T14:41:47;6.60;;;3.80;;
66741;SDS011;53654;54.152;19.432;2023-02-27T14:44:23;6.10;;;3.80;;
66741;SDS011;53654;54.152;19.432;2023-02-27T14:46:54;5.10;;;3.30;;
66741;SDS011;53654;54.152;19.432;2023-02-27T14:49:25;5.00;;;3.00;;
66741;SDS011;53654;54.152;19.432;2023-02-27T14:51:56;5.70;;;3.60;;
66741;SDS011;53654;54.152;19.432;2023-02-27T14:54:41;4.40;;;3.20;;
66741;SDS011;53654;54.152;19.432;2023-02-27T14:57:22;3.90;;;2.50;;
66741;SDS011;53654;54.152;19.432;2023-02-27T14:59:53;4.30;;;2.50;;
66741;SDS011;53654;54.152;19.432;2023-02-27T15:02:25;3.30;;;2.70;;
66741;SDS011;53654;54.152;19.432;2023-02-27T15:07:31;6.10;;;4.40;;
66741;SDS011;53654;54.152;19.432;2023-02-27T15:10:02;8.10;;;5.30;;
66741;SDS011;53654;54.152;19.432;2023-02-27T15:12:35;4.70;;;3.50;;
66741;SDS011;53654;54.152;19.432;2023-02-27T15:15:06;5.30;;;3.90;;
66741;SDS011;53654;54.152;19.432;2023-02-27T15:17:38;6.20;;;4.90;;
66741;SDS011;53654;54.152;19.432;2023-02-27T15:20:27;6.70;;;4.60;;
66741;SDS011;53654;54.152;19.432;2023-02-27T15:22:58;6.10;;;4.20;;
66741;SDS011;53654;54.152;19.432;2023-02-27T15:25:31;3.20;;;2.60;;
66741;SDS011;53654;54.152;19.432;2023-02-27T15:28:16;3.70;;;3.20;;
66741;SDS011;53654;54.152;19.432;2023-02-27T15:30:50;3.10;;;2.80;;
66741;SDS011;53654;54.152;19.432;2023-02-27T15:33:27;2.90;;;2.40;;
66741;SDS011;53654;54.152;19.432;2023-02-27T15:35:57;2.50;;;2.30;;
66741;SDS011;53654;54.152;19.432;2023-02-27T15:38:27;3.00;;;2.40;;
66741;SDS011;53654;54.152;19.432;2023-02-27T15:40:56;2.40;;;2.10;;
66741;SDS011;53654;54.152;19.432;2023-02-27T15:43:27;2.50;;;2.30;;
66741;SDS011;53654;54.152;19.432;2023-02-27T15:45:56;2.40;;;2.10;;
66741;SDS011;53654;54.152;19.432;2023-02-27T15:48:25;2.50;;;2.10;;
66741;SDS011;53654;54.152;19.432;2023-02-27T15:50:57;3.80;;;2.60;;
66741;SDS011;53654;54.152;19.432;2023-02-27T15:53:27;4.20;;;3.20;;
66741;SDS011;53654;54.152;19.432;2023-02-27T15:55:58;4.60;;;3.60;;
66741;SDS011;53654;54.152;19.432;2023-02-27T16:01:03;6.80;;;4.90;;
66741;SDS011;53654;54.152;19.432;2023-02-27T16:03:36;3.40;;;2.40;;
66741;SDS011;53654;54.152;19.432;2023-02-27T16:06:19;2.00;;;1.80;;
66741;SDS011;53654;54.152;19.432;2023-02-27T16:11:43;2.80;;;2.10;;
66741;SDS011;53654;54.152;19.432;2023-02-27T16:17:19;4.50;;;3.10;;
66741;SDS011;53654;54.152;19.432;2023-02-27T16:19:50;5.30;;;3.40;;
66741;SDS011;53654;54.152;19.432;2023-02-27T16:22:19;5.00;;;4.00;;
66741;SDS011;53654;54.152;19.432;2023-02-27T16:24:48;5.60;;;4.30;;
66741;SDS011;53654;54.152;19.432;2023-02-27T16:27:26;5.20;;;4.40;;
66741;SDS011;53654;54.152;19.432;2023-02-27T16:29:56;5.10;;;4.30;;
66741;SDS011;53654;54.152;19.432;2023-02-27T16:32:39;5.70;;;5.20;;
66741;SDS011;53654;54.152;19.432;2023-02-27T16:35:18;6.30;;;4.70;;
66741;SDS011;53654;54.152;19.432;2023-02-27T16:37:48;8.00;;;5.60;;
66741;SDS011;53654;54.152;19.432;2023-02-27T16:40:18;9.00;;;7.60;;
66741;SDS011;53654;54.152;19.432;2023-02-27T16:42:49;9.50;;;7.30;;
66741;SDS011;53654;54.152;19.432;2023-02-27T16:45:23;7.90;;;6.50;;
66741;SDS011;53654;54.152;19.432;2023-02-27T16:47:54;4.60;;;3.80;;
66741;SDS011;53654;54.152;19.432;2023-02-27T16:50:31;5.40;;;3.90;;
66741;SDS011;53654;54.152;19.432;2023-02-27T16:53:05;5.80;;;4.70;;
66741;SDS011;53654;54.152;19.432;2023-02-27T16:55:36;5.80;;;4.60;;
66741;SDS011;53654;54.152;19.432;2023-02-27T16:58:07;6.50;;;5.60;;
66741;SDS011;53654;54.152;19.432;2023-02-27T17:00:40;10.20;;;7.10;;
66741;SDS011;53654;54.152;19.432;2023-02-27T17:03:08;11.00;;;7.30;;
66741;SDS011;53654;54.152;19.432;2023-02-27T17:05:36;9.60;;;7.60;;
66741;SDS011;53654;54.152;19.432;2023-02-27T17:08:04;10.60;;;8.00;;
66741;SDS011;53654;54.152;19.432;2023-02-27T17:10:33;11.20;;;8.50;;
66741;SDS011;53654;54.152;19.432;2023-02-27T17:13:01;12.20;;;9.70;;
66741;SDS011;53654;54.152;19.432;2023-02-27T17:15:29;11.70;;;10.10;;
66741;SDS011;53654;54.152;19.432;2023-02-27T17:17:57;12.60;;;10.60;;
66741;SDS011;53654;54.152;19.432;2023-02-27T17:20:25;11.40;;;10.10;;
66741;SDS011;53654;54.152;19.432;2023-02-27T17:22:54;12.20;;;10.10;;
66741;SDS011;53654;54.152;19.432;2023-02-27T17:25:23;12.30;;;10.90;;
66741;SDS011;53654;54.152;19.432;2023-02-27T17:27:52;12.60;;;11.00;;
66741;SDS011;53654;54.152;19.432;2023-02-27T17:30:20;11.20;;;10.00;;
66741;SDS011;53654;54.152;19.432;2023-02-27T17:32:48;12.50;;;9.40;;
66741;SDS011;53654;54.152;19.432;2023-02-27T17:35:16;15.40;;;12.30;;
66741;SDS011;53654;54.152;19.432;2023-02-27T17:37:45;17.50;;;13.80;;
66741;SDS011;53654;54.152;19.432;2023-02-27T17:40:13;19.90;;;16.30;;
66741;SDS011;53654;54.152;19.432;2023-02-27T17:42:41;18.30;;;14.80;;
66741;SDS011;53654;54.152;19.432;2023-02-27T17:45:09;16.70;;;13.00;;
66741;SDS011;53654;54.152;19.432;2023-02-27T17:47:38;16.20;;;12.80;;
66741;SDS011;53654;54.152;19.432;2023-02-27T17:50:06;13.40;;;11.60;;
66741;SDS011;53654;54.152;19.432;2023-02-27T17:52:35;15.60;;;13.20;;